sensor_id;sensor_type;location;lat;lon;timestamp;P1;durP1;ratioP1;P2;durP2;ratioP2
59830;SDS011;45711;50.108;13.712;2023-07-08T00:01:52;10.50;;;4.32;;
59830;SDS011;45711;50.108;13.712;2023-07-08T00:04:17;15.68;;;4.38;;
59830;SDS011;45711;50.108;13.712;2023-07-08T00:06:43;10.38;;;4.30;;
59830;SDS011;45711;50.108;13.712;2023-07-08T00:09:09;7.63;;;3.80;;
59830;SDS011;45711;50.108;13.712;2023-07-08T00:11:38;7.57;;;3.85;;
59830;SDS011;45711;50.108;13.712;2023-07-08T00:14:04;7.60;;;3.97;;
59830;SDS011;45711;50.108;13.712;2023-07-08T00:16:29;10.13;;;3.80;;
59830;SDS011;45711;50.108;13.712;2023-07-08T00:18:55;9.55;;;3.85;;
59830;SDS011;45711;50.108;13.712;2023-07-08T00:21:20;14.05;;;4.30;;
59830;SDS011;45711;50.108;13.712;2023-07-08T00:23:46;12.40;;;3.85;;
59830;SDS011;45711;50.108;13.712;2023-07-08T00:26:14;9.57;;;3.95;;
59830;SDS011;45711;50.108;13.712;2023-07-08T00:28:45;7.40;;;4.00;;
59830;SDS011;45711;50.108;13.712;2023-07-08T00:31:10;9.88;;;4.18;;
59830;SDS011;45711;50.108;13.712;2023-07-08T00:33:36;8.35;;;4.03;;
59830;SDS011;45711;50.108;13.712;2023-07-08T00:36:01;6.10;;;3.90;;
59830;SDS011;45711;50.108;13.712;2023-07-08T00:38:33;8.60;;;3.40;;
59830;SDS011;45711;50.108;13.712;2023-07-08T00:41:00;8.98;;;3.70;;
59830;SDS011;45711;50.108;13.712;2023-07-08T00:43:34;5.95;;;4.10;;
59830;SDS011;45711;50.108;13.712;2023-07-08T00:46:12;11.00;;;4.00;;
59830;SDS011;45711;50.108;13.712;2023-07-08T00:48:43;6.53;;;4.03;;
59830;SDS011;45711;50.108;13.712;2023-07-08T00:51:10;7.18;;;4.10;;
59830;SDS011;45711;50.108;13.712;2023-07-08T00:53:37;7.60;;;3.90;;
59830;SDS011;45711;50.108;13.712;2023-07-08T00:56:04;8.90;;;3.78;;
59830;SDS011;45711;50.108;13.712;2023-07-08T00:58:39;9.23;;;3.92;;
59830;SDS011;45711;50.108;13.712;2023-07-08T01:01:12;6.63;;;4.00;;
59830;SDS011;45711;50.108;13.712;2023-07-08T01:03:40;8.88;;;4.25;;
59830;SDS011;45711;50.108;13.712;2023-07-08T01:06:10;8.63;;;4.10;;
59830;SDS011;45711;50.108;13.712;2023-07-08T01:08:39;10.93;;;4.00;;
59830;SDS011;45711;50.108;13.712;2023-07-08T01:11:04;11.55;;;4.00;;
59830;SDS011;45711;50.108;13.712;2023-07-08T01:13:32;11.43;;;4.30;;
59830;SDS011;45711;50.108;13.712;2023-07-08T01:16:00;7.78;;;4.25;;
59830;SDS011;45711;50.108;13.712;2023-07-08T01:18:27;7.45;;;3.97;;
59830;SDS011;45711;50.108;13.712;2023-07-08T01:20:53;7.85;;;4.07;;
59830;SDS011;45711;50.108;13.712;2023-07-08T01:23:22;6.75;;;4.07;;
59830;SDS011;45711;50.108;13.712;2023-07-08T01:25:48;6.35;;;4.22;;
59830;SDS011;45711;50.108;13.712;2023-07-08T01:28:14;7.03;;;4.05;;
59830;SDS011;45711;50.108;13.712;2023-07-08T01:30:40;8.05;;;4.57;;
59830;SDS011;45711;50.108;13.712;2023-07-08T01:33:15;6.97;;;4.03;;
59830;SDS011;45711;50.108;13.712;2023-07-08T01:35:44;8.40;;;4.40;;
59830;SDS011;45711;50.108;13.712;2023-07-08T01:38:15;8.48;;;4.20;;
59830;SDS011;45711;50.108;13.712;2023-07-08T01:40:51;6.78;;;4.25;;
59830;SDS011;45711;50.108;13.712;2023-07-08T01:43:21;13.25;;;4.07;;
59830;SDS011;45711;50.108;13.712;2023-07-08T01:45:47;8.18;;;3.90;;
59830;SDS011;45711;50.108;13.712;2023-07-08T01:48:19;8.63;;;3.83;;
59830;SDS011;45711;50.108;13.712;2023-07-08T01:50:47;6.20;;;3.85;;
59830;SDS011;45711;50.108;13.712;2023-07-08T01:53:18;6.57;;;3.35;;
59830;SDS011;45711;50.108;13.712;2023-07-08T01:55:46;6.63;;;3.80;;
59830;SDS011;45711;50.108;13.712;2023-07-08T01:58:16;6.20;;;3.75;;
59830;SDS011;45711;50.108;13.712;2023-07-08T02:00:41;6.05;;;3.90;;
59830;SDS011;45711;50.108;13.712;2023-07-08T02:03:08;7.30;;;4.22;;
59830;SDS011;45711;50.108;13.712;2023-07-08T02:05:35;5.75;;;3.85;;
59830;SDS011;45711;50.108;13.712;2023-07-08T02:08:00;9.00;;;4.15;;
59830;SDS011;45711;50.108;13.712;2023-07-08T02:10:26;9.82;;;4.05;;
59830;SDS011;45711;50.108;13.712;2023-07-08T02:12:54;11.05;;;4.28;;
59830;SDS011;45711;50.108;13.712;2023-07-08T02:15:23;8.50;;;4.20;;
59830;SDS011;45711;50.108;13.712;2023-07-08T02:17:48;7.25;;;4.03;;
59830;SDS011;45711;50.108;13.712;2023-07-08T02:20:15;10.20;;;4.05;;
59830;SDS011;45711;50.108;13.712;2023-07-08T02:22:41;7.57;;;4.40;;
59830;SDS011;45711;50.108;13.712;2023-07-08T02:25:07;8.23;;;4.97;;
59830;SDS011;45711;50.108;13.712;2023-07-08T02:27:34;9.50;;;4.28;;
59830;SDS011;45711;50.108;13.712;2023-07-08T02:30:00;9.07;;;4.20;;
59830;SDS011;45711;50.108;13.712;2023-07-08T02:32:26;6.25;;;4.25;;
59830;SDS011;45711;50.108;13.712;2023-07-08T02:35:00;6.15;;;3.88;;
59830;SDS011;45711;50.108;13.712;2023-07-08T02:37:26;10.25;;;3.97;;
59830;SDS011;45711;50.108;13.712;2023-07-08T02:39:51;7.57;;;3.97;;
59830;SDS011;45711;50.108;13.712;2023-07-08T02:42:17;6.53;;;4.05;;
59830;SDS011;45711;50.108;13.712;2023-07-08T02:44:42;7.07;;;4.07;;
59830;SDS011;45711;50.108;13.712;2023-07-08T02:47:11;8.40;;;4.28;;
59830;SDS011;45711;50.108;13.712;2023-07-08T02:49:38;6.35;;;3.97;;
59830;SDS011;45711;50.108;13.712;2023-07-08T02:52:03;7.07;;;4.00;;
59830;SDS011;45711;50.108;13.712;2023-07-08T02:54:29;7.88;;;4.07;;
59830;SDS011;45711;50.108;13.712;2023-07-08T02:56:55;6.13;;;4.13;;
59830;SDS011;45711;50.108;13.712;2023-07-08T02:59:21;10.57;;;4.15;;
59830;SDS011;45711;50.108;13.712;2023-07-08T03:01:46;4.75;;;3.60;;
59830;SDS011;45711;50.108;13.712;2023-07-08T03:04:12;7.43;;;4.00;;
59830;SDS011;45711;50.108;13.712;2023-07-08T03:06:40;12.55;;;4.30;;
59830;SDS011;45711;50.108;13.712;2023-07-08T03:09:05;8.25;;;4.00;;
59830;SDS011;45711;50.108;13.712;2023-07-08T03:11:35;9.85;;;4.43;;
59830;SDS011;45711;50.108;13.712;2023-07-08T03:14:04;6.88;;;3.85;;
59830;SDS011;45711;50.108;13.712;2023-07-08T03:16:30;5.65;;;3.83;;
59830;SDS011;45711;50.108;13.712;2023-07-08T03:18:56;6.15;;;4.10;;
59830;SDS011;45711;50.108;13.712;2023-07-08T03:21:21;7.88;;;3.80;;
59830;SDS011;45711;50.108;13.712;2023-07-08T03:23:51;7.50;;;3.83;;
59830;SDS011;45711;50.108;13.712;2023-07-08T03:26:18;5.70;;;4.10;;
59830;SDS011;45711;50.108;13.712;2023-07-08T03:28:45;5.32;;;3.80;;
59830;SDS011;45711;50.108;13.712;2023-07-08T03:31:11;6.75;;;4.07;;
59830;SDS011;45711;50.108;13.712;2023-07-08T03:33:37;12.98;;;4.28;;
59830;SDS011;45711;50.108;13.712;2023-07-08T03:36:03;5.03;;;4.10;;
59830;SDS011;45711;50.108;13.712;2023-07-08T03:38:29;7.47;;;3.75;;
59830;SDS011;45711;50.108;13.712;2023-07-08T03:40:56;11.77;;;4.20;;
59830;SDS011;45711;50.108;13.712;2023-07-08T03:43:25;7.57;;;3.72;;
59830;SDS011;45711;50.108;13.712;2023-07-08T03:45:50;8.52;;;3.90;;
59830;SDS011;45711;50.108;13.712;2023-07-08T03:48:19;9.60;;;4.13;;
59830;SDS011;45711;50.108;13.712;2023-07-08T03:50:44;7.72;;;4.10;;
59830;SDS011;45711;50.108;13.712;2023-07-08T03:53:10;7.22;;;4.35;;
59830;SDS011;45711;50.108;13.712;2023-07-08T03:55:36;10.20;;;4.40;;
59830;SDS011;45711;50.108;13.712;2023-07-08T03:58:03;9.60;;;3.97;;
59830;SDS011;45711;50.108;13.712;2023-07-08T04:00:28;8.70;;;4.68;;
59830;SDS011;45711;50.108;13.712;2023-07-08T04:02:54;5.53;;;4.10;;
59830;SDS011;45711;50.108;13.712;2023-07-08T04:05:20;5.90;;;4.18;;
59830;SDS011;45711;50.108;13.712;2023-07-08T04:07:47;7.25;;;4.00;;
59830;SDS011;45711;50.108;13.712;2023-07-08T04:10:14;7.28;;;4.18;;
59830;SDS011;45711;50.108;13.712;2023-07-08T04:12:40;6.43;;;4.30;;
59830;SDS011;45711;50.108;13.712;2023-07-08T04:15:08;9.43;;;4.10;;
59830;SDS011;45711;50.108;13.712;2023-07-08T04:17:35;9.15;;;4.45;;
59830;SDS011;45711;50.108;13.712;2023-07-08T04:20:07;21.23;;;4.90;;
59830;SDS011;45711;50.108;13.712;2023-07-08T04:22:35;19.50;;;4.32;;
59830;SDS011;45711;50.108;13.712;2023-07-08T04:25:01;13.90;;;4.55;;
59830;SDS011;45711;50.108;13.712;2023-07-08T04:27:29;8.52;;;3.88;;
59830;SDS011;45711;50.108;13.712;2023-07-08T04:29:55;7.18;;;4.30;;
59830;SDS011;45711;50.108;13.712;2023-07-08T04:32:22;6.88;;;4.70;;
59830;SDS011;45711;50.108;13.712;2023-07-08T04:34:50;12.93;;;4.55;;
59830;SDS011;45711;50.108;13.712;2023-07-08T04:37:16;7.20;;;4.70;;
59830;SDS011;45711;50.108;13.712;2023-07-08T04:39:41;7.88;;;4.50;;
59830;SDS011;45711;50.108;13.712;2023-07-08T04:42:07;7.88;;;4.47;;
59830;SDS011;45711;50.108;13.712;2023-07-08T04:44:32;6.80;;;4.50;;
59830;SDS011;45711;50.108;13.712;2023-07-08T04:46:58;8.25;;;4.18;;
59830;SDS011;45711;50.108;13.712;2023-07-08T04:49:25;13.10;;;4.50;;
59830;SDS011;45711;50.108;13.712;2023-07-08T04:51:58;13.77;;;5.38;;
59830;SDS011;45711;50.108;13.712;2023-07-08T04:54:24;8.32;;;4.57;;
59830;SDS011;45711;50.108;13.712;2023-07-08T04:56:50;7.90;;;4.90;;
59830;SDS011;45711;50.108;13.712;2023-07-08T04:59:19;7.45;;;4.55;;
59830;SDS011;45711;50.108;13.712;2023-07-08T05:01:46;10.52;;;5.28;;
59830;SDS011;45711;50.108;13.712;2023-07-08T05:04:12;8.65;;;5.60;;
59830;SDS011;45711;50.108;13.712;2023-07-08T05:06:40;11.60;;;5.82;;
59830;SDS011;45711;50.108;13.712;2023-07-08T05:09:06;11.63;;;5.70;;
59830;SDS011;45711;50.108;13.712;2023-07-08T05:11:32;11.10;;;5.65;;
59830;SDS011;45711;50.108;13.712;2023-07-08T05:13:59;9.65;;;5.70;;
59830;SDS011;45711;50.108;13.712;2023-07-08T05:16:24;12.05;;;5.90;;
59830;SDS011;45711;50.108;13.712;2023-07-08T05:18:50;11.18;;;5.13;;
59830;SDS011;45711;50.108;13.712;2023-07-08T05:21:16;7.28;;;5.07;;
59830;SDS011;45711;50.108;13.712;2023-07-08T05:23:44;13.20;;;4.78;;
59830;SDS011;45711;50.108;13.712;2023-07-08T05:26:10;11.75;;;4.72;;
59830;SDS011;45711;50.108;13.712;2023-07-08T05:28:36;10.48;;;5.28;;
59830;SDS011;45711;50.108;13.712;2023-07-08T05:31:02;10.82;;;4.70;;
59830;SDS011;45711;50.108;13.712;2023-07-08T05:33:30;14.40;;;5.05;;
59830;SDS011;45711;50.108;13.712;2023-07-08T05:35:56;11.27;;;5.40;;
59830;SDS011;45711;50.108;13.712;2023-07-08T05:38:23;16.38;;;6.03;;
59830;SDS011;45711;50.108;13.712;2023-07-08T05:40:55;7.65;;;4.50;;
59830;SDS011;45711;50.108;13.712;2023-07-08T05:43:30;13.82;;;4.75;;
59830;SDS011;45711;50.108;13.712;2023-07-08T05:45:57;10.70;;;4.35;;
59830;SDS011;45711;50.108;13.712;2023-07-08T05:48:23;11.45;;;4.25;;
59830;SDS011;45711;50.108;13.712;2023-07-08T05:50:49;9.48;;;4.40;;
59830;SDS011;45711;50.108;13.712;2023-07-08T05:53:14;11.68;;;4.65;;
59830;SDS011;45711;50.108;13.712;2023-07-08T05:55:44;10.43;;;4.00;;
59830;SDS011;45711;50.108;13.712;2023-07-08T05:58:11;25.58;;;4.93;;
59830;SDS011;45711;50.108;13.712;2023-07-08T06:00:40;185.43;;;11.95;;
59830;SDS011;45711;50.108;13.712;2023-07-08T06:03:05;8.85;;;4.70;;
59830;SDS011;45711;50.108;13.712;2023-07-08T06:05:31;9.20;;;4.47;;
59830;SDS011;45711;50.108;13.712;2023-07-08T06:07:58;13.75;;;4.20;;
59830;SDS011;45711;50.108;13.712;2023-07-08T06:10:24;6.78;;;4.47;;
59830;SDS011;45711;50.108;13.712;2023-07-08T06:12:49;11.68;;;4.10;;
59830;SDS011;45711;50.108;13.712;2023-07-08T06:15:17;13.73;;;4.18;;
59830;SDS011;45711;50.108;13.712;2023-07-08T06:17:42;11.85;;;3.90;;
59830;SDS011;45711;50.108;13.712;2023-07-08T06:20:08;15.88;;;4.68;;
59830;SDS011;45711;50.108;13.712;2023-07-08T06:22:34;7.25;;;4.00;;
59830;SDS011;45711;50.108;13.712;2023-07-08T06:24:59;7.07;;;3.67;;
59830;SDS011;45711;50.108;13.712;2023-07-08T06:27:25;14.95;;;4.57;;
59830;SDS011;45711;50.108;13.712;2023-07-08T06:29:50;6.72;;;4.03;;
59830;SDS011;45711;50.108;13.712;2023-07-08T06:32:17;7.82;;;3.92;;
59830;SDS011;45711;50.108;13.712;2023-07-08T06:34:43;8.27;;;3.88;;
59830;SDS011;45711;50.108;13.712;2023-07-08T06:37:08;12.48;;;3.88;;
59830;SDS011;45711;50.108;13.712;2023-07-08T06:39:34;16.52;;;4.18;;
59830;SDS011;45711;50.108;13.712;2023-07-08T06:41:59;11.80;;;4.25;;
59830;SDS011;45711;50.108;13.712;2023-07-08T06:44:25;13.60;;;3.67;;
59830;SDS011;45711;50.108;13.712;2023-07-08T06:46:51;8.90;;;3.90;;
59830;SDS011;45711;50.108;13.712;2023-07-08T06:49:18;16.15;;;4.60;;
59830;SDS011;45711;50.108;13.712;2023-07-08T06:51:44;7.25;;;4.03;;
59830;SDS011;45711;50.108;13.712;2023-07-08T06:54:10;7.07;;;4.00;;
59830;SDS011;45711;50.108;13.712;2023-07-08T06:56:38;10.30;;;5.10;;
59830;SDS011;45711;50.108;13.712;2023-07-08T06:59:05;11.77;;;5.25;;
59830;SDS011;45711;50.108;13.712;2023-07-08T07:01:31;12.38;;;4.18;;
59830;SDS011;45711;50.108;13.712;2023-07-08T07:03:56;8.32;;;4.00;;
59830;SDS011;45711;50.108;13.712;2023-07-08T07:06:23;24.85;;;5.13;;
59830;SDS011;45711;50.108;13.712;2023-07-08T07:08:49;12.90;;;4.30;;
59830;SDS011;45711;50.108;13.712;2023-07-08T07:11:14;9.73;;;3.95;;
59830;SDS011;45711;50.108;13.712;2023-07-08T07:13:40;10.32;;;4.20;;
59830;SDS011;45711;50.108;13.712;2023-07-08T07:16:05;4.95;;;3.95;;
59830;SDS011;45711;50.108;13.712;2023-07-08T07:18:31;11.68;;;4.03;;
59830;SDS011;45711;50.108;13.712;2023-07-08T07:20:57;8.40;;;4.70;;
59830;SDS011;45711;50.108;13.712;2023-07-08T07:23:25;13.65;;;5.07;;
59830;SDS011;45711;50.108;13.712;2023-07-08T07:25:51;9.23;;;4.45;;
59830;SDS011;45711;50.108;13.712;2023-07-08T07:28:16;9.15;;;4.38;;
59830;SDS011;45711;50.108;13.712;2023-07-08T07:30:42;6.43;;;4.10;;
59830;SDS011;45711;50.108;13.712;2023-07-08T07:33:09;8.65;;;4.53;;
59830;SDS011;45711;50.108;13.712;2023-07-08T07:35:35;9.18;;;4.47;;
59830;SDS011;45711;50.108;13.712;2023-07-08T07:38:00;7.55;;;4.43;;
59830;SDS011;45711;50.108;13.712;2023-07-08T07:40:27;10.75;;;4.05;;
59830;SDS011;45711;50.108;13.712;2023-07-08T07:42:53;8.60;;;4.05;;
59830;SDS011;45711;50.108;13.712;2023-07-08T07:45:19;10.02;;;4.05;;
59830;SDS011;45711;50.108;13.712;2023-07-08T07:47:47;5.90;;;3.85;;
59830;SDS011;45711;50.108;13.712;2023-07-08T07:50:13;8.45;;;4.15;;
59830;SDS011;45711;50.108;13.712;2023-07-08T07:52:38;7.18;;;4.10;;
59830;SDS011;45711;50.108;13.712;2023-07-08T07:55:05;7.68;;;3.72;;
59830;SDS011;45711;50.108;13.712;2023-07-08T07:57:34;7.57;;;4.10;;
59830;SDS011;45711;50.108;13.712;2023-07-08T07:59:59;5.90;;;3.97;;
59830;SDS011;45711;50.108;13.712;2023-07-08T08:02:25;5.63;;;3.85;;
59830;SDS011;45711;50.108;13.712;2023-07-08T08:04:51;8.57;;;3.50;;
59830;SDS011;45711;50.108;13.712;2023-07-08T08:07:16;7.68;;;3.95;;
59830;SDS011;45711;50.108;13.712;2023-07-08T08:09:42;7.03;;;3.20;;
59830;SDS011;45711;50.108;13.712;2023-07-08T08:12:08;4.80;;;2.70;;
59830;SDS011;45711;50.108;13.712;2023-07-08T08:14:37;9.73;;;3.00;;
59830;SDS011;45711;50.108;13.712;2023-07-08T08:17:03;6.90;;;3.22;;
59830;SDS011;45711;50.108;13.712;2023-07-08T08:19:31;9.55;;;3.83;;
59830;SDS011;45711;50.108;13.712;2023-07-08T08:21:57;11.02;;;3.15;;
59830;SDS011;45711;50.108;13.712;2023-07-08T08:24:23;5.90;;;3.20;;
59830;SDS011;45711;50.108;13.712;2023-07-08T08:26:49;5.90;;;3.55;;
59830;SDS011;45711;50.108;13.712;2023-07-08T08:29:15;6.30;;;3.85;;
59830;SDS011;45711;50.108;13.712;2023-07-08T08:31:42;6.40;;;3.17;;
59830;SDS011;45711;50.108;13.712;2023-07-08T08:34:08;4.25;;;3.60;;
59830;SDS011;45711;50.108;13.712;2023-07-08T08:36:36;9.18;;;3.50;;
59830;SDS011;45711;50.108;13.712;2023-07-08T08:39:03;5.25;;;3.55;;
59830;SDS011;45711;50.108;13.712;2023-07-08T08:41:29;4.93;;;2.88;;
59830;SDS011;45711;50.108;13.712;2023-07-08T08:43:59;5.90;;;3.13;;
59830;SDS011;45711;50.108;13.712;2023-07-08T08:46:28;4.95;;;3.42;;
59830;SDS011;45711;50.108;13.712;2023-07-08T08:49:02;4.82;;;3.30;;
59830;SDS011;45711;50.108;13.712;2023-07-08T08:51:35;5.80;;;3.03;;
59830;SDS011;45711;50.108;13.712;2023-07-08T08:54:04;7.97;;;3.00;;
59830;SDS011;45711;50.108;13.712;2023-07-08T08:56:34;5.25;;;3.00;;
59830;SDS011;45711;50.108;13.712;2023-07-08T08:59:11;5.85;;;3.13;;
59830;SDS011;45711;50.108;13.712;2023-07-08T09:01:44;10.88;;;3.42;;
59830;SDS011;45711;50.108;13.712;2023-07-08T09:04:13;4.68;;;2.50;;
59830;SDS011;45711;50.108;13.712;2023-07-08T09:06:44;6.88;;;2.90;;
59830;SDS011;45711;50.108;13.712;2023-07-08T09:09:12;5.43;;;3.10;;
59830;SDS011;45711;50.108;13.712;2023-07-08T09:11:47;3.95;;;2.90;;
59830;SDS011;45711;50.108;13.712;2023-07-08T09:14:19;3.67;;;3.15;;
59830;SDS011;45711;50.108;13.712;2023-07-08T09:16:57;5.35;;;3.08;;
59830;SDS011;45711;50.108;13.712;2023-07-08T09:19:39;5.95;;;2.90;;
59830;SDS011;45711;50.108;13.712;2023-07-08T09:22:11;4.05;;;2.80;;
59830;SDS011;45711;50.108;13.712;2023-07-08T09:24:41;5.35;;;2.58;;
59830;SDS011;45711;50.108;13.712;2023-07-08T09:27:09;4.43;;;2.90;;
59830;SDS011;45711;50.108;13.712;2023-07-08T09:29:36;11.48;;;3.05;;
59830;SDS011;45711;50.108;13.712;2023-07-08T09:32:11;7.25;;;2.45;;
59830;SDS011;45711;50.108;13.712;2023-07-08T09:34:42;5.45;;;2.85;;
59830;SDS011;45711;50.108;13.712;2023-07-08T09:37:27;4.03;;;2.55;;
59830;SDS011;45711;50.108;13.712;2023-07-08T09:39:55;3.80;;;2.30;;
59830;SDS011;45711;50.108;13.712;2023-07-08T09:42:22;7.20;;;3.10;;
59830;SDS011;45711;50.108;13.712;2023-07-08T09:44:54;5.45;;;3.47;;
59830;SDS011;45711;50.108;13.712;2023-07-08T09:47:22;5.38;;;3.00;;
59830;SDS011;45711;50.108;13.712;2023-07-08T09:49:53;6.45;;;2.92;;
59830;SDS011;45711;50.108;13.712;2023-07-08T09:52:18;8.30;;;3.33;;
59830;SDS011;45711;50.108;13.712;2023-07-08T09:54:45;7.68;;;2.80;;
59830;SDS011;45711;50.108;13.712;2023-07-08T09:57:12;4.63;;;2.53;;
59830;SDS011;45711;50.108;13.712;2023-07-08T09:59:53;8.40;;;2.63;;
59830;SDS011;45711;50.108;13.712;2023-07-08T10:02:25;3.78;;;2.85;;
59830;SDS011;45711;50.108;13.712;2023-07-08T10:04:56;3.47;;;2.60;;
59830;SDS011;45711;50.108;13.712;2023-07-08T10:07:24;5.03;;;2.58;;
59830;SDS011;45711;50.108;13.712;2023-07-08T10:09:54;4.72;;;2.60;;
59830;SDS011;45711;50.108;13.712;2023-07-08T10:12:23;6.60;;;2.60;;
59830;SDS011;45711;50.108;13.712;2023-07-08T10:14:49;3.63;;;2.53;;
59830;SDS011;45711;50.108;13.712;2023-07-08T10:17:20;6.40;;;3.63;;
59830;SDS011;45711;50.108;13.712;2023-07-08T10:19:46;7.57;;;3.30;;
59830;SDS011;45711;50.108;13.712;2023-07-08T10:22:21;4.15;;;2.80;;
59830;SDS011;45711;50.108;13.712;2023-07-08T10:25:00;4.28;;;2.47;;
59830;SDS011;45711;50.108;13.712;2023-07-08T10:27:35;3.03;;;2.45;;
59830;SDS011;45711;50.108;13.712;2023-07-08T10:30:11;3.97;;;3.03;;
59830;SDS011;45711;50.108;13.712;2023-07-08T10:32:48;3.88;;;2.80;;
59830;SDS011;45711;50.108;13.712;2023-07-08T10:35:29;3.50;;;2.60;;
59830;SDS011;45711;50.108;13.712;2023-07-08T10:38:05;6.55;;;3.30;;
59830;SDS011;45711;50.108;13.712;2023-07-08T10:40:45;4.30;;;2.70;;
59830;SDS011;45711;50.108;13.712;2023-07-08T10:43:21;3.33;;;2.40;;
59830;SDS011;45711;50.108;13.712;2023-07-08T10:46:11;4.57;;;2.78;;
59830;SDS011;45711;50.108;13.712;2023-07-08T10:48:52;3.83;;;2.60;;
59830;SDS011;45711;50.108;13.712;2023-07-08T10:51:32;3.80;;;2.72;;
59830;SDS011;45711;50.108;13.712;2023-07-08T10:54:18;4.40;;;2.33;;
59830;SDS011;45711;50.108;13.712;2023-07-08T10:57:00;4.10;;;2.45;;
59830;SDS011;45711;50.108;13.712;2023-07-08T10:59:40;4.07;;;2.75;;
59830;SDS011;45711;50.108;13.712;2023-07-08T11:02:22;4.70;;;2.60;;
59830;SDS011;45711;50.108;13.712;2023-07-08T11:05:02;4.03;;;2.47;;
59830;SDS011;45711;50.108;13.712;2023-07-08T11:07:42;4.78;;;2.83;;
59830;SDS011;45711;50.108;13.712;2023-07-08T11:10:14;4.47;;;2.58;;
59830;SDS011;45711;50.108;13.712;2023-07-08T11:12:44;3.17;;;2.60;;
59830;SDS011;45711;50.108;13.712;2023-07-08T11:15:15;6.20;;;2.40;;
59830;SDS011;45711;50.108;13.712;2023-07-08T11:17:48;7.57;;;2.35;;
59830;SDS011;45711;50.108;13.712;2023-07-08T11:20:18;3.20;;;2.20;;
59830;SDS011;45711;50.108;13.712;2023-07-08T11:22:49;3.97;;;2.55;;
59830;SDS011;45711;50.108;13.712;2023-07-08T11:25:20;5.25;;;2.60;;
59830;SDS011;45711;50.108;13.712;2023-07-08T11:27:49;6.90;;;2.40;;
59830;SDS011;45711;50.108;13.712;2023-07-08T11:30:20;3.70;;;2.17;;
59830;SDS011;45711;50.108;13.712;2023-07-08T11:32:52;5.15;;;2.40;;
59830;SDS011;45711;50.108;13.712;2023-07-08T11:35:23;5.35;;;2.22;;
59830;SDS011;45711;50.108;13.712;2023-07-08T11:37:56;3.30;;;2.50;;
59830;SDS011;45711;50.108;13.712;2023-07-08T11:40:24;3.60;;;2.15;;
59830;SDS011;45711;50.108;13.712;2023-07-08T11:42:50;4.35;;;2.20;;
59830;SDS011;45711;50.108;13.712;2023-07-08T11:45:22;3.72;;;2.33;;
59830;SDS011;45711;50.108;13.712;2023-07-08T11:47:51;3.30;;;2.15;;
59830;SDS011;45711;50.108;13.712;2023-07-08T11:50:19;4.82;;;2.63;;
59830;SDS011;45711;50.108;13.712;2023-07-08T11:52:50;5.72;;;2.60;;
59830;SDS011;45711;50.108;13.712;2023-07-08T11:55:20;4.90;;;2.15;;
59830;SDS011;45711;50.108;13.712;2023-07-08T11:57:53;5.65;;;2.22;;
59830;SDS011;45711;50.108;13.712;2023-07-08T12:00:23;3.95;;;2.30;;
59830;SDS011;45711;50.108;13.712;2023-07-08T12:02:52;3.67;;;2.45;;
59830;SDS011;45711;50.108;13.712;2023-07-08T12:05:29;5.70;;;2.40;;
59830;SDS011;45711;50.108;13.712;2023-07-08T12:07:59;4.10;;;2.47;;
59830;SDS011;45711;50.108;13.712;2023-07-08T12:10:31;5.05;;;2.03;;
59830;SDS011;45711;50.108;13.712;2023-07-08T12:13:01;3.33;;;2.30;;
59830;SDS011;45711;50.108;13.712;2023-07-08T12:15:28;4.43;;;2.40;;
59830;SDS011;45711;50.108;13.712;2023-07-08T12:17:58;4.85;;;2.30;;
59830;SDS011;45711;50.108;13.712;2023-07-08T12:20:26;4.00;;;2.30;;
59830;SDS011;45711;50.108;13.712;2023-07-08T12:22:54;4.03;;;2.33;;
59830;SDS011;45711;50.108;13.712;2023-07-08T12:25:21;3.50;;;2.30;;
59830;SDS011;45711;50.108;13.712;2023-07-08T12:27:49;7.47;;;2.65;;
59830;SDS011;45711;50.108;13.712;2023-07-08T12:30:16;6.13;;;2.30;;
59830;SDS011;45711;50.108;13.712;2023-07-08T12:32:42;4.68;;;2.40;;
59830;SDS011;45711;50.108;13.712;2023-07-08T12:35:14;5.13;;;2.42;;
59830;SDS011;45711;50.108;13.712;2023-07-08T12:37:46;2.75;;;2.15;;
59830;SDS011;45711;50.108;13.712;2023-07-08T12:40:12;5.07;;;2.20;;
59830;SDS011;45711;50.108;13.712;2023-07-08T12:42:38;5.82;;;2.30;;
59830;SDS011;45711;50.108;13.712;2023-07-08T12:45:08;5.15;;;2.30;;
59830;SDS011;45711;50.108;13.712;2023-07-08T12:47:40;4.72;;;2.17;;
59830;SDS011;45711;50.108;13.712;2023-07-08T12:50:07;6.30;;;2.15;;
59830;SDS011;45711;50.108;13.712;2023-07-08T12:52:34;5.47;;;2.55;;
59830;SDS011;45711;50.108;13.712;2023-07-08T12:55:00;6.10;;;2.60;;
59830;SDS011;45711;50.108;13.712;2023-07-08T12:57:26;2.47;;;1.98;;
59830;SDS011;45711;50.108;13.712;2023-07-08T12:59:52;3.33;;;2.17;;
59830;SDS011;45711;50.108;13.712;2023-07-08T13:02:19;5.03;;;2.10;;
59830;SDS011;45711;50.108;13.712;2023-07-08T13:04:49;7.25;;;3.40;;
59830;SDS011;45711;50.108;13.712;2023-07-08T13:07:22;5.45;;;2.65;;
59830;SDS011;45711;50.108;13.712;2023-07-08T13:09:56;4.43;;;2.15;;
59830;SDS011;45711;50.108;13.712;2023-07-08T13:12:22;6.53;;;2.50;;
59830;SDS011;45711;50.108;13.712;2023-07-08T13:14:49;6.68;;;2.47;;
59830;SDS011;45711;50.108;13.712;2023-07-08T13:17:16;6.15;;;2.50;;
59830;SDS011;45711;50.108;13.712;2023-07-08T13:19:42;3.55;;;2.40;;
59830;SDS011;45711;50.108;13.712;2023-07-08T13:22:12;4.82;;;2.15;;
59830;SDS011;45711;50.108;13.712;2023-07-08T13:24:41;2.78;;;2.05;;
59830;SDS011;45711;50.108;13.712;2023-07-08T13:27:12;4.80;;;2.40;;
59830;SDS011;45711;50.108;13.712;2023-07-08T13:29:43;5.03;;;2.40;;
59830;SDS011;45711;50.108;13.712;2023-07-08T13:32:10;5.03;;;2.20;;
59830;SDS011;45711;50.108;13.712;2023-07-08T13:34:38;2.50;;;1.83;;
59830;SDS011;45711;50.108;13.712;2023-07-08T13:37:08;3.28;;;2.20;;
59830;SDS011;45711;50.108;13.712;2023-07-08T13:39:43;5.75;;;2.30;;
59830;SDS011;45711;50.108;13.712;2023-07-08T13:42:11;3.25;;;2.30;;
59830;SDS011;45711;50.108;13.712;2023-07-08T13:44:41;5.20;;;2.60;;
59830;SDS011;45711;50.108;13.712;2023-07-08T13:47:18;2.58;;;2.00;;
59830;SDS011;45711;50.108;13.712;2023-07-08T13:49:47;3.10;;;2.15;;
59830;SDS011;45711;50.108;13.712;2023-07-08T13:52:21;6.85;;;2.50;;
59830;SDS011;45711;50.108;13.712;2023-07-08T13:54:48;6.18;;;2.85;;
59830;SDS011;45711;50.108;13.712;2023-07-08T13:57:44;5.93;;;3.17;;
59830;SDS011;45711;50.108;13.712;2023-07-08T14:00:35;5.68;;;3.13;;
59830;SDS011;45711;50.108;13.712;2023-07-08T14:03:01;8.88;;;4.80;;
59830;SDS011;45711;50.108;13.712;2023-07-08T14:05:27;6.65;;;3.95;;
59830;SDS011;45711;50.108;13.712;2023-07-08T14:07:54;3.95;;;2.70;;
59830;SDS011;45711;50.108;13.712;2023-07-08T14:10:22;3.67;;;2.83;;
59830;SDS011;45711;50.108;13.712;2023-07-08T14:12:48;13.13;;;6.05;;
59830;SDS011;45711;50.108;13.712;2023-07-08T14:15:14;6.75;;;4.85;;
59830;SDS011;45711;50.108;13.712;2023-07-08T14:17:40;8.82;;;6.85;;
59830;SDS011;45711;50.108;13.712;2023-07-08T14:20:11;11.82;;;8.02;;
59830;SDS011;45711;50.108;13.712;2023-07-08T14:22:40;15.07;;;7.25;;
59830;SDS011;45711;50.108;13.712;2023-07-08T14:25:08;5.50;;;4.13;;
59830;SDS011;45711;50.108;13.712;2023-07-08T14:27:35;7.53;;;4.60;;
59830;SDS011;45711;50.108;13.712;2023-07-08T14:30:00;10.52;;;6.97;;
59830;SDS011;45711;50.108;13.712;2023-07-08T14:32:27;9.30;;;7.38;;
59830;SDS011;45711;50.108;13.712;2023-07-08T14:34:56;14.75;;;7.07;;
59830;SDS011;45711;50.108;13.712;2023-07-08T14:37:24;5.85;;;4.35;;
59830;SDS011;45711;50.108;13.712;2023-07-08T14:39:52;5.43;;;4.40;;